Time;durP1;ratioP1;P1;durP2;ratioP2;P2;SDS_P1;SDS_P2;PMS_P1;PMS_P2;Temp;Humidity;BMP_temperature;BMP_pressure;BME280_temperature;BME280_humidity;BME280_pressure;Samples;Min_cycle;Max_cycle;Signal;HPM_P1;HPM_P2
2023/01/09 00:00:25;;;;;;;4.85;0.70;;;;;;;-142.75;100.00;76050.66;5006685;28;20358;-70
2023/01/09 00:02:51;;;;;;;1.87;0.67;;;;;;;-142.75;100.00;76042.78;5012017;28;20593;-68
2023/01/09 00:05:18;;;;;;;1.77;0.52;;;;;;;-142.75;100.00;76042.78;5013320;28;20032;-70
2023/01/09 00:07:43;;;;;;;3.70;1.10;;;;;;;-142.75;100.00;76046.72;5018901;28;20086;-69
2023/01/09 00:10:10;;;;;;;4.70;0.93;;;;;;;-142.75;100.00;76042.78;5010057;28;20350;-69
2023/01/09 00:12:36;;;;;;;3.57;1.10;;;;;;;-142.75;100.00;76046.72;5010293;28;20132;-68
2023/01/09 00:15:03;;;;;;;9.00;0.98;;;;;;;-142.75;100.00;76052.63;5021657;28;20024;-69
2023/01/09 00:17:29;;;;;;;5.07;1.03;;;;;;;-142.75;100.00;76054.59;5011748;28;20093;-69
2023/01/09 00:19:54;;;;;;;4.70;0.95;;;;;;;-142.75;100.00;76058.53;5009444;28;20434;-70
2023/01/09 00:22:20;;;;;;;5.28;0.73;;;;;;;-142.75;100.00;76064.44;5019879;28;20439;-68
2023/01/09 00:24:46;;;;;;;4.05;1.05;;;;;;;-142.75;100.00;76062.47;5009499;28;20042;-69
2023/01/09 00:27:13;;;;;;;2.20;0.85;;;;;;;-142.75;100.00;76054.59;5002992;28;20388;-68
2023/01/09 00:29:40;;;;;;;1.33;0.70;;;;;;;-142.75;100.00;76062.47;4988509;28;20898;-69
2023/01/09 00:32:09;;;;;;;4.60;1.73;;;;;;;-142.75;100.00;76056.56;5017902;28;20130;-70
2023/01/09 00:34:36;;;;;;;2.10;0.70;;;;;;;-142.75;100.00;76062.47;5021300;28;20032;-69
2023/01/09 00:37:02;;;;;;;4.40;0.90;;;;;;;-142.75;100.00;76066.41;5013518;28;20070;-69
2023/01/09 00:39:28;;;;;;;1.33;0.63;;;;;;;-142.75;100.00;76060.50;4992826;28;20053;-70
2023/01/09 00:41:55;;;;;;;4.22;1.65;;;;;;;-142.75;100.00;76070.34;5010923;28;20365;-68
2023/01/09 00:44:31;;;;;;;4.77;0.80;;;;;;;-142.75;100.00;76064.44;5023992;28;20020;-69
2023/01/09 00:47:00;;;;;;;2.15;1.08;;;;;;;-142.75;100.00;76070.34;5001341;28;20056;-69
2023/01/09 00:49:30;;;;;;;3.13;1.07;;;;;;;-142.75;100.00;76074.25;5008217;28;20020;-70
2023/01/09 00:51:55;;;;;;;4.40;1.20;;;;;;;-142.75;100.00;76070.34;5008256;28;20091;-70
2023/01/09 00:54:21;;;;;;;2.47;0.82;;;;;;;-142.75;100.00;76066.41;5019062;28;20349;-70
2023/01/09 00:56:48;;;;;;;2.30;0.82;;;;;;;-142.75;100.00;76074.25;5010943;28;20493;-70
2023/01/09 00:59:14;;;;;;;4.77;1.30;;;;;;;-142.75;100.00;76076.22;5010676;28;20028;-70
2023/01/09 01:01:40;;;;;;;6.78;1.00;;;;;;;-142.75;100.00;76093.94;5004590;28;20321;-69
2023/01/09 01:09:34;;;;;;;3.63;1.00;;;;;;;-142.75;100.00;76091.97;5008722;28;20145;-67
2023/01/09 01:12:00;;;;;;;2.88;1.10;;;;;;;-142.75;100.00;76097.88;4984975;28;20420;-66
2023/01/09 01:14:26;;;;;;;5.70;1.30;;;;;;;-142.75;100.00;76093.94;5001448;28;20591;-67
2023/01/09 01:16:52;;;;;;;6.28;1.40;;;;;;;-142.75;100.00;76095.91;5012320;28;20054;-67
2023/01/09 01:19:17;;;;;;;9.20;1.30;;;;;;;-142.75;100.00;76082.13;5024988;28;20377;-68
2023/01/09 01:21:43;;;;;;;3.83;1.20;;;;;;;-142.75;100.00;76095.91;5020864;28;20337;-68
2023/01/09 01:24:08;;;;;;;2.33;1.13;;;;;;;-142.75;100.00;76074.25;5024760;28;20345;-67
2023/01/09 01:26:34;;;;;;;5.22;1.35;;;;;;;-142.75;100.00;76072.31;5025067;28;20387;-67
2023/01/09 01:28:59;;;;;;;7.82;1.63;;;;;;;-142.75;100.00;76066.41;5019085;28;20456;-68
2023/01/09 01:31:25;;;;;;;4.15;1.05;;;;;;;-142.75;100.00;76076.22;5024462;28;20324;-66
2023/01/09 01:33:50;;;;;;;4.75;1.17;;;;;;;-142.75;100.00;76076.22;5011735;28;20150;-67
2023/01/09 01:36:16;;;;;;;7.28;1.42;;;;;;;-142.75;100.00;76064.44;5010890;28;20299;-68
2023/01/09 01:38:43;;;;;;;5.28;1.55;;;;;;;-142.75;100.00;76080.16;4994705;28;20302;-67
2023/01/09 01:41:08;;;;;;;4.60;1.30;;;;;;;-142.75;100.00;76072.31;5019822;28;20648;-67
2023/01/09 01:43:54;;;;;;;2.90;1.63;;;;;;;-142.75;100.00;76056.56;5010957;28;20035;-67
2023/01/09 01:46:20;;;;;;;3.00;1.20;;;;;;;-142.75;100.00;76066.41;4993396;28;20541;-66
2023/01/09 01:48:48;;;;;;;;;;;;;;;-142.75;100.00;76064.44;5017732;28;20060;-67
2023/01/09 01:51:17;;;;;;;6.37;1.50;;;;;;;-142.75;100.00;76078.19;5004700;28;19998;-68
2023/01/09 01:53:50;;;;;;;4.70;1.43;;;;;;;-142.75;100.00;76080.16;5011719;28;20032;-67
2023/01/09 01:56:21;;;;;;;4.03;2.03;;;;;;;-142.75;100.00;76091.97;5007351;28;20590;-67
2023/01/09 01:59:17;;;;;;;6.53;1.50;;;;;;;-142.75;100.00;76086.06;5018114;28;20054;-67
2023/01/09 02:01:48;;;;;;;7.83;1.80;;;;;;;-142.75;100.00;76078.19;5015359;28;20576;-67
2023/01/09 02:04:14;;;;;;;3.20;1.50;;;;;;;-142.75;100.00;76095.91;5011499;28;20264;-67
2023/01/09 02:06:41;;;;;;;3.15;1.77;;;;;;;-142.75;100.00;76095.91;5017511;28;20324;-68
2023/01/09 02:09:07;;;;;;;5.70;1.60;;;;;;;-142.75;100.00;76093.94;5019299;28;20098;-67
2023/01/09 02:11:33;;;;;;;3.73;1.80;;;;;;;-142.75;100.00;76109.69;5014970;28;20036;-68
2023/01/09 02:14:00;;;;;;;4.25;2.00;;;;;;;-142.75;100.00;76109.69;4998356;28;20193;-67
2023/01/09 02:16:52;;;;;;;9.43;2.07;;;;;;;-142.75;100.00;76103.78;5018603;28;20020;-69
2023/01/09 02:19:44;;;;;;;9.57;1.93;;;;;;;-142.75;100.00;76119.53;5018348;28;20060;-67
2023/01/09 02:22:21;;;;;;;5.07;2.20;;;;;;;-142.75;100.00;76121.50;4994750;28;20036;-68
2023/01/09 02:25:05;;;;;;;7.87;2.57;;;;;;;-142.75;100.00;76137.25;5017403;28;20051;-68
2023/01/09 02:27:39;;;;;;;6.47;2.30;;;;;;;-142.75;100.00;76125.44;5003886;28;20098;-68
2023/01/09 02:30:23;;;;;;;5.93;2.13;;;;;;;-142.75;100.00;76141.19;4990883;28;20759;-67
2023/01/09 02:33:06;;;;;;;10.27;2.67;;;;;;;-142.75;100.00;76133.31;4985926;28;20032;-68
2023/01/09 02:35:53;;;;;;;6.53;1.87;;;;;;;-142.75;100.00;76141.19;5012937;28;20020;-68
2023/01/09 02:38:44;;;;;;;6.47;2.08;;;;;;;-142.75;100.00;76143.16;5003634;28;20545;-67
2023/01/09 02:41:37;;;;;;;13.87;2.23;;;;;;;-142.75;100.00;76129.38;5016869;28;20039;-67
2023/01/09 02:44:24;;;;;;;7.97;1.97;;;;;;;-142.75;100.00;76141.19;5005183;28;20556;-67
2023/01/09 02:47:19;;;;;;;6.93;1.65;;;;;;;-142.75;100.00;76131.34;5003807;28;20055;-67
2023/01/09 02:49:58;;;;;;;3.80;1.47;;;;;;;-142.75;100.00;76149.06;4981687;28;20032;-68
2023/01/09 02:52:27;;;;;;;7.83;1.67;;;;;;;-142.75;100.00;76143.16;5016658;28;20028;-67
2023/01/09 02:55:02;;;;;;;6.20;1.27;;;;;;;-142.75;100.00;76139.22;5004347;28;20025;-68
2023/01/09 02:57:30;;;;;;;7.43;1.83;;;;;;;-142.75;100.00;76160.88;4986157;28;20055;-68
2023/01/09 03:00:12;;;;;;;5.83;1.27;;;;;;;-142.75;100.00;76174.66;5022313;28;20548;-69
2023/01/09 03:02:46;;;;;;;6.33;1.53;;;;;;;-142.75;100.00;76172.69;5006304;28;20024;-68
2023/01/09 03:05:36;;;;;;;4.73;1.90;;;;;;;-142.75;100.00;76168.75;5014317;28;20532;-67
2023/01/09 03:08:10;;;;;;;3.70;1.60;;;;;;;-142.75;100.00;76180.56;4991911;28;20030;-67
2023/01/09 03:10:59;;;;;;;6.57;2.07;;;;;;;-142.75;100.00;76149.06;5019231;28;20024;-68
2023/01/09 03:13:32;;;;;;;9.33;1.80;;;;;;;-142.75;100.00;76164.81;5002621;28;20110;-67
2023/01/09 03:16:01;;;;;;;5.17;1.37;;;;;;;-142.75;100.00;76156.94;4992159;28;20106;-68
2023/01/09 03:18:30;;;;;;;6.17;1.33;;;;;;;-142.75;100.00;76172.69;5006882;28;20032;-67
2023/01/09 03:20:55;;;;;;;7.43;1.43;;;;;;;-142.75;100.00;76166.78;5017807;28;20548;-67
2023/01/09 03:23:21;;;;;;;8.35;1.50;;;;;;;-142.75;100.00;76172.69;5006602;28;20028;-68
2023/01/09 03:25:47;;;;;;;2.92;1.58;;;;;;;-142.75;100.00;76166.78;5003957;28;20380;-68
2023/01/09 03:28:29;;;;;;;3.75;1.63;;;;;;;-142.75;100.00;76151.03;4994440;28;20435;-67
2023/01/09 03:30:55;;;;;;;8.10;1.67;;;;;;;-142.75;100.00;76168.75;5012618;28;20038;-67
2023/01/09 03:33:20;;;;;;;8.52;1.75;;;;;;;-142.75;100.00;76153.00;5000323;28;20353;-69
2023/01/09 03:35:46;;;;;;;7.45;1.85;;;;;;;-142.75;100.00;76164.81;4987501;28;20322;-68
2023/01/09 03:38:12;;;;;;;8.82;1.75;;;;;;;-142.75;100.00;76154.97;5010897;28;20350;-68
2023/01/09 03:40:37;;;;;;;7.00;1.58;;;;;;;-142.75;100.00;76162.84;4984790;28;20461;-68
2023/01/09 03:43:03;;;;;;;5.53;1.30;;;;;;;-142.75;100.00;76164.81;4996967;28;20403;-66
2023/01/09 03:45:28;;;;;;;6.97;1.67;;;;;;;-142.75;100.00;76160.88;5005448;28;20285;-66
2023/01/09 03:47:57;;;;;;;8.40;1.60;;;;;;;-142.75;100.00;76162.84;5009855;28;20106;-67
2023/01/09 03:50:22;;;;;;;5.73;1.67;;;;;;;-142.75;100.00;76164.81;5005253;28;20031;-68
2023/01/09 03:52:48;;;;;;;7.53;1.30;;;;;;;-142.75;100.00;76174.66;5009290;28;20326;-65
2023/01/09 03:55:13;;;;;;;5.55;2.05;;;;;;;-142.75;100.00;76153.00;5013009;28;20075;-68
2023/01/09 03:57:39;;;;;;;4.95;1.65;;;;;;;-142.75;100.00;76164.81;5006225;28;20229;-67
2023/01/09 04:00:05;;;;;;;2.88;1.20;;;;;;;-142.75;100.00;76149.06;4983802;28;20347;-68
2023/01/09 04:02:30;;;;;;;;;;;;;;;-142.75;100.00;76153.00;5011673;28;20027;-67
2023/01/09 04:04:56;;;;;;;9.87;1.97;;;;;;;-142.75;100.00;76164.81;5003602;28;20190;-68
2023/01/09 04:07:21;;;;;;;2.97;1.38;;;;;;;-142.75;100.00;76156.94;5021968;28;20470;-68
2023/01/09 04:09:47;;;;;;;6.30;1.58;;;;;;;-142.75;100.00;76168.75;4993742;28;20419;-68
2023/01/09 04:12:13;;;;;;;3.20;1.20;;;;;;;-142.75;100.00;76158.91;5013578;28;20357;-67
2023/01/09 04:14:38;;;;;;;4.35;1.38;;;;;;;-142.75;100.00;76151.03;5011664;28;20050;-68
2023/01/09 04:17:04;;;;;;;6.97;1.48;;;;;;;-142.75;100.00;76143.16;5013334;28;20350;-66
2023/01/09 04:19:29;;;;;;;6.85;1.60;;;;;;;-142.75;100.00;76149.06;5002073;28;20345;-67
2023/01/09 04:21:55;;;;;;;7.13;1.83;;;;;;;-142.75;100.00;76145.13;5013527;28;20345;-69
2023/01/09 04:24:20;;;;;;;5.72;1.73;;;;;;;-142.75;100.00;76147.09;5010837;28;20472;-68
2023/01/09 04:26:46;;;;;;;8.63;1.70;;;;;;;-142.75;100.00;76121.50;5002870;28;20032;-68
2023/01/09 04:29:11;;;;;;;2.88;1.10;;;;;;;-142.75;100.00;76125.44;4994483;28;20325;-67
2023/01/09 04:31:37;;;;;;;6.07;2.05;;;;;;;-142.75;100.00;76107.72;5013768;28;20341;-67
2023/01/09 04:34:02;;;;;;;4.68;1.83;;;;;;;-142.75;100.00;76125.44;4990420;28;20325;-67
2023/01/09 04:36:28;;;;;;;3.28;1.35;;;;;;;-142.75;100.00;76133.31;4996211;28;20295;-67
2023/01/09 04:38:53;;;;;;;6.55;1.58;;;;;;;-142.75;100.00;76109.69;5009070;28;20398;-67
2023/01/09 04:44:04;;;;;;;5.90;1.37;;;;;;;-142.75;100.00;76109.69;5019910;28;20332;-68
2023/01/09 04:46:29;;;;;;;;;;;;;;;-142.75;100.00;76093.94;5021681;28;20016;-67
2023/01/09 04:48:55;;;;;;;4.70;1.70;;;;;;;-142.75;100.00;76101.81;5007558;28;20334;-67
2023/01/09 04:51:20;;;;;;;4.72;1.50;;;;;;;-142.75;100.00;76097.88;5017583;28;20419;-67
2023/01/09 04:53:46;;;;;;;4.60;1.50;;;;;;;-142.75;100.00;76080.16;5015322;28;20387;-67
2023/01/09 04:56:11;;;;;;;6.00;1.33;;;;;;;-142.75;100.00;76058.53;5017025;28;20318;-68
2023/01/09 04:58:37;;;;;;;3.88;1.50;;;;;;;-142.75;100.00;76062.47;5016551;28;20358;-66
2023/01/09 05:01:02;;;;;;;6.18;1.63;;;;;;;-142.75;100.00;76046.72;5014821;28;20388;-68
2023/01/09 05:03:28;;;;;;;2.95;1.33;;;;;;;-142.75;100.00;76052.63;5005013;28;20311;-67
2023/01/09 05:05:53;;;;;;;7.40;1.60;;;;;;;-142.75;100.00;76044.75;4994306;28;20239;-69
2023/01/09 05:08:19;;;;;;;5.32;1.35;;;;;;;-142.75;100.00;76054.59;5017038;28;20311;-67
2023/01/09 05:10:44;;;;;;;9.88;2.17;;;;;;;-142.75;100.00;76048.69;4987158;28;20436;-68
2023/01/09 05:13:10;;;;;;;7.78;2.10;;;;;;;-142.75;100.00;76044.75;5004798;28;20499;-68
2023/01/09 05:15:35;;;;;;;5.07;1.83;;;;;;;-142.75;100.00;76046.72;5012975;28;20402;-67
2023/01/09 05:18:01;;;;;;;4.47;1.92;;;;;;;-142.75;100.00;76048.69;5018509;28;20024;-68
2023/01/09 05:20:26;;;;;;;10.70;1.88;;;;;;;-142.75;100.00;76058.53;5021654;28;20333;-68
2023/01/09 05:22:52;;;;;;;5.93;2.10;;;;;;;-142.75;100.00;76060.50;5011802;28;20322;-66
2023/01/09 05:25:17;;;;;;;8.60;1.92;;;;;;;-142.75;100.00;76062.47;4999879;28;20303;-67
2023/01/09 05:27:45;;;;;;;8.48;1.95;;;;;;;-142.75;100.00;76062.47;5024487;28;20307;-67
2023/01/09 05:30:12;;;;;;;10.20;1.70;;;;;;;-142.75;100.00;76060.50;5013618;28;20048;-66
2023/01/09 05:32:38;;;;;;;9.37;2.13;;;;;;;-142.75;100.00;76068.38;5015523;28;20123;-66
2023/01/09 05:35:03;;;;;;;9.70;2.03;;;;;;;-142.75;100.00;76052.63;4986547;28;20335;-67
2023/01/09 05:37:29;;;;;;;6.57;1.50;;;;;;;-142.75;100.00;76062.47;5023065;28;20299;-65
2023/01/09 05:39:54;;;;;;;7.28;1.80;;;;;;;-142.75;100.00;76042.78;5020556;28;20046;-67
2023/01/09 05:42:20;;;;;;;9.25;1.80;;;;;;;-142.75;100.00;76048.69;4992428;28;20296;-66
2023/01/09 05:44:46;;;;;;;3.90;1.60;;;;;;;-142.75;100.00;76038.84;5019742;28;20394;-66
2023/01/09 05:47:11;;;;;;;5.50;1.70;;;;;;;-142.75;100.00;76056.56;4999089;28;20335;-65
2023/01/09 05:49:37;;;;;;;7.95;1.58;;;;;;;-142.75;100.00;76050.66;4987370;28;20043;-66
2023/01/09 05:52:03;;;;;;;4.65;1.85;;;;;;;-142.75;100.00;76036.88;5021562;28;20568;-65
2023/01/09 05:54:29;;;;;;;5.93;1.73;;;;;;;-142.75;100.00;76038.84;5012738;28;20051;-66
2023/01/09 05:56:54;;;;;;;4.03;1.65;;;;;;;-142.75;100.00;76038.84;5018275;28;20345;-67
2023/01/09 05:59:20;;;;;;;8.95;2.00;;;;;;;-142.75;100.00;76042.78;4986279;28;20341;-66
2023/01/09 06:01:45;;;;;;;7.30;1.65;;;;;;;-142.75;100.00;76050.66;5013830;28;20403;-68
2023/01/09 06:04:12;;;;;;;6.72;1.92;;;;;;;-142.75;100.00;76027.03;5020503;28;20368;-66
2023/01/09 06:06:38;;;;;;;5.10;1.30;;;;;;;-142.75;100.00;76044.75;5024058;28;20021;-67
2023/01/09 06:09:04;;;;;;;8.80;2.20;;;;;;;-142.75;100.00;76025.06;5023083;28;20104;-66
2023/01/09 06:11:29;;;;;;;7.13;1.83;;;;;;;-142.75;100.00;76036.88;4985735;28;20438;-66
2023/01/09 06:13:55;;;;;;;4.55;1.42;;;;;;;-142.75;100.00;76030.97;5017397;28;20514;-64
2023/01/09 06:16:21;;;;;;;9.60;1.88;;;;;;;-142.75;100.00;76029.00;5023826;28;20175;-66
2023/01/09 06:18:46;;;;;;;4.47;1.42;;;;;;;-142.75;100.00;76023.09;4988369;28;20381;-66
2023/01/09 06:21:12;;;;;;;6.43;1.52;;;;;;;-142.75;100.00;76023.09;5000738;28;20488;-65
2023/01/09 06:23:37;;;;;;;8.45;1.67;;;;;;;-142.75;100.00;76013.25;5010903;28;20353;-66
2023/01/09 06:26:03;;;;;;;13.20;1.90;;;;;;;-142.75;100.00;76023.09;5019511;28;20365;-65
2023/01/09 06:28:28;;;;;;;7.80;1.77;;;;;;;-142.75;100.00;75999.47;4994212;28;20408;-65
2023/01/09 06:30:54;;;;;;;4.38;1.65;;;;;;;-142.75;100.00;76040.81;5016823;28;20032;-67
2023/01/09 06:33:19;;;;;;;6.57;1.80;;;;;;;-142.75;100.00;76007.34;5009147;28;20326;-66
2023/01/09 06:35:45;;;;;;;3.58;1.73;;;;;;;-142.75;100.00;76013.25;5003522;28;20333;-65
2023/01/09 06:38:11;;;;;;;6.95;1.75;;;;;;;-142.75;100.00;76005.38;5007417;28;20356;-67
2023/01/09 06:40:37;;;;;;;12.48;2.03;;;;;;;-142.75;100.00;75993.56;5016271;28;20329;-65
2023/01/09 06:43:02;;;;;;;5.15;1.60;;;;;;;-142.75;100.00;75983.72;5014748;28;20332;-66
2023/01/09 06:45:28;;;;;;;6.78;1.52;;;;;;;-142.75;100.00;75973.88;4999209;28;20422;-66
2023/01/09 06:47:53;;;;;;;8.52;1.80;;;;;;;-142.75;100.00;75973.88;5005250;28;20333;-65
2023/01/09 06:50:19;;;;;;;8.75;1.98;;;;;;;-142.75;100.00;75971.91;5008595;28;20020;-66
2023/01/09 06:52:45;;;;;;;5.53;2.17;;;;;;;-142.75;100.00;75971.91;5008483;28;20068;-66
2023/01/09 06:55:10;;;;;;;5.80;1.70;;;;;;;-142.75;100.00;75967.97;5014466;28;20329;-66
2023/01/09 06:57:36;;;;;;;9.85;1.85;;;;;;;-142.75;100.00;75975.84;5009238;28;20385;-66
2023/01/09 07:00:02;;;;;;;9.00;1.52;;;;;;;-142.75;100.00;75964.03;5012427;28;20369;-65
2023/01/09 07:02:27;;;;;;;5.53;2.00;;;;;;;-142.75;100.00;75967.97;4990194;28;20055;-65
2023/01/09 07:04:53;;;;;;;4.43;1.40;;;;;;;-142.75;100.00;75948.31;4997307;28;20362;-65
2023/01/09 07:07:21;;;;;;;7.80;1.23;;;;;;;-142.75;100.00;75942.41;5017474;28;20345;-65
2023/01/09 07:09:46;;;;;;;5.30;1.23;;;;;;;-142.75;100.00;75948.31;4991846;28;20039;-64
2023/01/09 07:12:13;;;;;;;3.97;1.00;;;;;;;-142.75;100.00;75950.28;5013507;28;20351;-65
2023/01/09 07:14:39;;;;;;;7.43;1.20;;;;;;;-142.75;100.00;75946.34;5023970;28;20201;-64
2023/01/09 07:17:04;;;;;;;3.72;0.98;;;;;;;-142.75;100.00;75952.25;5001401;28;20258;-64
2023/01/09 07:19:30;;;;;;;6.00;0.98;;;;;;;-142.75;100.00;75956.19;5022586;28;20190;-65
2023/01/09 07:21:55;;;;;;;2.50;1.02;;;;;;;-142.75;100.00;75956.19;5017401;28;20012;-64
2023/01/09 07:24:21;;;;;;;0.75;0.40;;;;;;;-142.75;100.00;75938.47;5012333;28;20352;-66
2023/01/09 07:26:46;;;;;;;9.48;0.93;;;;;;;-142.75;100.00;75940.44;5024518;28;20377;-65
2023/01/09 07:29:12;;;;;;;4.75;0.93;;;;;;;-142.75;100.00;75950.28;5013753;28;20488;-66
2023/01/09 07:31:38;;;;;;;3.17;0.85;;;;;;;-142.75;100.00;75948.31;5058630;28;20069;-66
2023/01/09 07:34:03;;;;;;;8.30;0.80;;;;;;;-142.75;100.00;75954.22;5064117;28;20074;-67
2023/01/09 07:36:28;;;;;;;2.63;0.70;;;;;;;-142.75;100.00;75954.22;5047818;28;20787;-65
2023/01/09 07:38:54;;;;;;;4.63;0.90;;;;;;;-142.75;100.00;75952.25;5065196;28;20147;-66
2023/01/09 07:41:19;;;;;;;6.20;1.05;;;;;;;-142.75;100.00;75964.03;5065689;28;20016;-66
2023/01/09 07:43:44;;;;;;;2.65;0.77;;;;;;;-142.75;100.00;75956.19;5072580;28;20043;-66
2023/01/09 07:46:10;;;;;;;5.18;1.17;;;;;;;-142.75;100.00;75967.97;5068989;28;20055;-65
2023/01/09 07:48:35;;;;;;;3.47;0.90;;;;;;;-142.75;100.00;75960.13;5080257;28;20042;-68
2023/01/09 07:51:00;;;;;;;4.45;0.68;;;;;;;-142.75;100.00;75979.78;5071215;28;20439;-65
2023/01/09 07:53:26;;;;;;;5.95;0.82;;;;;;;-142.75;100.00;75971.91;5042441;28;20031;-64
2023/01/09 07:55:51;;;;;;;7.63;0.82;;;;;;;-142.75;100.00;75975.84;5060893;28;20493;-67
2023/01/09 07:58:16;;;;;;;2.95;0.60;;;;;;;-142.75;100.00;75975.84;5059770;28;20024;-65
2023/01/09 08:00:42;;;;;;;8.63;1.17;;;;;;;-142.75;100.00;75969.94;5042602;28;20055;-66
2023/01/09 08:03:07;;;;;;;3.17;1.02;;;;;;;-142.75;100.00;75977.81;5060206;28;20025;-65
2023/01/09 08:05:32;;;;;;;3.55;0.85;;;;;;;-142.75;100.00;75983.72;5060291;28;20043;-66
2023/01/09 08:07:58;;;;;;;5.88;1.00;;;;;;;-142.75;100.00;75985.69;5059603;28;20137;-67
2023/01/09 08:10:23;;;;;;;8.90;1.10;;;;;;;-142.75;100.00;75997.50;5060547;28;20024;-64
2023/01/09 08:12:49;;;;;;;5.95;0.63;;;;;;;-142.75;100.00;75991.59;5060767;28;20074;-66
2023/01/09 08:15:15;;;;;;;6.32;1.60;;;;;;;-142.75;100.00;75999.47;5060378;28;20573;-68
2023/01/09 08:17:42;;;;;;;12.67;1.07;;;;;;;-142.75;100.00;75993.56;5041698;28;20027;-67
2023/01/09 08:20:12;;;;;;;9.93;1.00;;;;;;;-142.75;100.00;75995.53;5040508;28;20063;-66
2023/01/09 08:22:40;;;;;;;6.73;0.90;;;;;;;-142.75;100.00;75997.50;5065485;28;20379;-65
2023/01/09 08:25:06;;;;;;;10.10;1.20;;;;;;;-142.75;100.00;76005.38;5041424;28;20038;-66
2023/01/09 08:27:32;;;;;;;6.50;0.90;;;;;;;-142.75;100.00;76015.22;5067210;28;20028;-68
2023/01/09 08:29:57;;;;;;;9.73;1.27;;;;;;;-142.75;100.00;76021.13;5056481;28;20599;-65
2023/01/09 08:32:22;;;;;;;5.20;1.05;;;;;;;-142.75;100.00;76021.13;5071226;28;20124;-67
2023/01/09 08:34:48;;;;;;;5.40;0.95;;;;;;;-142.75;100.00;76029.00;5071562;28;20077;-67
2023/01/09 08:37:13;;;;;;;10.63;1.40;;;;;;;-142.75;100.00;76030.97;5069958;28;21609;-66
2023/01/09 08:39:38;;;;;;;14.30;2.78;;;;;;;-142.75;100.00;76034.91;5055809;28;20032;-64
2023/01/09 08:47:32;;;;;;;9.53;1.30;;;;;;;-142.75;100.00;76050.66;5070091;28;20256;-66
2023/01/09 08:49:58;;;;;;;6.60;1.67;;;;;;;-142.75;100.00;76042.78;5077580;28;20549;-65
2023/01/09 08:52:23;;;;;;;9.20;1.38;;;;;;;-142.75;100.00;76040.81;5061858;28;20043;-68
2023/01/09 08:54:49;;;;;;;10.95;1.48;;;;;;;-142.75;100.00;76058.53;5079069;28;20062;-66
2023/01/09 08:57:14;;;;;;;16.83;1.45;;;;;;;-142.75;100.00;76064.44;5067520;28;20020;-67
2023/01/09 08:59:39;;;;;;;12.05;1.15;;;;;;;-142.75;100.00;76064.44;5078398;28;20274;-68
2023/01/09 09:02:05;;;;;;;14.82;1.83;;;;;;;-142.75;100.00;76060.50;5079760;28;20042;-68
2023/01/09 09:04:30;;;;;;;10.90;1.05;;;;;;;-142.75;100.00;76056.56;5067116;28;20490;-67
2023/01/09 09:06:56;;;;;;;9.05;1.35;;;;;;;-142.75;100.00;76056.56;5059120;28;20028;-64
2023/01/09 09:09:21;;;;;;;15.35;1.83;;;;;;;-142.75;100.00;76062.47;5065371;28;20035;-63
2023/01/09 09:11:46;;;;;;;14.63;1.45;;;;;;;-142.75;100.00;76076.22;5075304;28;20456;-67
2023/01/09 09:16:55;;;;;;;18.90;2.20;;;;;;;-142.75;100.00;76068.38;5077685;28;20397;-64
2023/01/09 09:19:21;;;;;;;10.50;1.30;;;;;;;-142.75;100.00;76082.13;5074888;28;20398;-65
2023/01/09 09:21:46;;;;;;;16.90;1.95;;;;;;;-142.75;100.00;76074.25;5057149;28;20020;-69
2023/01/09 09:24:12;;;;;;;12.63;1.58;;;;;;;-142.75;100.00;76066.41;5069565;28;20031;-67
2023/01/09 09:26:37;;;;;;;8.32;1.20;;;;;;;-142.75;100.00;76072.31;5067023;28;20091;-67
2023/01/09 09:29:02;;;;;;;10.38;1.75;;;;;;;-142.75;100.00;76076.22;5068015;28;20393;-66
2023/01/09 09:31:28;;;;;;;12.45;1.50;;;;;;;-142.75;100.00;76093.94;5041136;28;20591;-69
2023/01/09 09:33:53;;;;;;;11.40;1.50;;;;;;;-142.75;100.00;76111.66;5042464;28;20079;-69
2023/01/09 09:36:18;;;;;;;7.55;1.63;;;;;;;-142.75;100.00;76129.38;5044990;28;20032;-67
2023/01/09 09:38:44;;;;;;;6.25;1.15;;;;;;;-142.75;100.00;76127.41;5067411;28;20071;-67
2023/01/09 09:47:39;;;;;;;7.67;1.20;;;;;;;-142.75;100.00;76156.94;5063452;28;20071;-65
2023/01/09 09:50:27;;;;;;;13.07;1.43;;;;;;;-142.75;100.00;76170.72;5011208;28;20083;-66
2023/01/09 09:53:12;;;;;;;5.90;0.93;;;;;;;-142.75;100.00;76156.94;5012038;28;20067;-66
2023/01/09 09:55:39;;;;;;;6.63;1.13;;;;;;;-142.75;100.00;76147.09;5011286;28;20020;-66
2023/01/09 09:58:21;;;;;;;5.70;1.25;;;;;;;-142.75;100.00;76137.25;5021906;28;20097;-66
2023/01/09 10:00:51;;;;;;;9.43;1.25;;;;;;;-142.75;100.00;76139.22;5023117;28;20059;-66
2023/01/09 10:03:38;;;;;;;10.25;0.95;;;;;;;-142.75;100.00;76141.19;5015343;28;20020;-66
2023/01/09 10:06:29;;;;;;;9.63;1.38;;;;;;;-142.75;100.00;76168.75;5021903;28;20047;-66
2023/01/09 10:09:32;;;;;;;7.68;1.10;;;;;;;-142.75;100.00;76164.81;4982792;28;20066;-66
2023/01/09 10:12:32;;;;;;;11.70;1.27;;;;;;;-142.75;100.00;76158.91;5004767;28;20142;-66
2023/01/09 10:15:02;;;;;;;13.25;1.27;;;;;;;-142.75;100.00;76160.88;4996841;28;20055;-66
2023/01/09 10:17:33;;;;;;;10.23;2.00;;;;;;;-142.75;100.00;76168.75;5023558;28;20617;-66
2023/01/09 10:20:28;;;;;;;11.60;1.92;;;;;;;-142.75;100.00;76164.81;5018465;28;20102;-66
2023/01/09 10:23:15;;;;;;;9.40;1.15;;;;;;;-142.75;100.00;76153.00;5023203;28;20054;-66
2023/01/09 10:25:51;;;;;;;4.88;0.90;;;;;;;-142.75;100.00;76137.25;4991209;28;20560;-66
2023/01/09 10:28:58;;;;;;;8.70;1.40;;;;;;;-142.75;100.00;76143.16;4994328;28;20552;-66
2023/01/09 10:31:47;;;;;;;11.30;1.58;;;;;;;-142.75;100.00;76141.19;5012396;28;20024;-67
2023/01/09 10:34:40;;;;;;;8.18;1.23;;;;;;;-142.75;100.00;76153.00;5016277;28;20589;-67
2023/01/09 10:37:20;;;;;;;10.52;1.08;;;;;;;-142.75;100.00;76149.06;5008283;28;20110;-67
2023/01/09 10:39:57;;;;;;;9.20;1.17;;;;;;;-142.75;100.00;76186.47;5005201;28;20532;-66
2023/01/09 10:42:33;;;;;;;6.95;1.50;;;;;;;-142.75;100.00;76172.69;5003412;28;20059;-66
2023/01/09 10:45:02;;;;;;;9.43;1.67;;;;;;;-142.75;100.00;76180.56;5006684;28;20090;-66
2023/01/09 10:47:38;;;;;;;12.88;2.15;;;;;;;-142.75;100.00;76182.53;5004828;28;20090;-66
2023/01/09 10:50:25;;;;;;;4.00;1.38;;;;;;;-142.75;100.00;76182.53;5015886;28;20054;-68
2023/01/09 10:52:55;;;;;;;7.93;1.30;;;;;;;-142.75;100.00;76184.50;5001143;28;20544;-67
2023/01/09 10:55:39;;;;;;;9.30;1.77;;;;;;;-142.75;100.00;76160.88;5000085;28;20841;-68
2023/01/09 10:58:12;;;;;;;13.00;1.52;;;;;;;-142.75;100.00;76153.00;5003545;28;20043;-67
2023/01/09 11:00:39;;;;;;;7.15;1.15;;;;;;;-142.75;100.00;76154.97;4998165;28;20878;-67
2023/01/09 11:03:05;;;;;;;9.70;1.55;;;;;;;-142.75;100.00;76160.88;4989017;28;20017;-67
2023/01/09 11:05:31;;;;;;;5.88;1.05;;;;;;;-142.75;100.00;76164.81;5003436;28;20058;-67
2023/01/09 11:08:05;;;;;;;11.10;1.65;;;;;;;-142.75;100.00;76149.06;5018875;28;20364;-67
2023/01/09 11:10:49;;;;;;;9.52;1.35;;;;;;;-142.75;100.00;76145.13;5010754;28;20593;-66
2023/01/09 11:13:23;;;;;;;9.57;1.30;;;;;;;-142.75;100.00;76158.91;5006647;28;20644;-66
2023/01/09 11:16:09;;;;;;;10.90;1.20;;;;;;;-142.75;100.00;76151.03;5019238;28;20030;-66
2023/01/09 11:18:38;;;;;;;12.10;1.38;;;;;;;-142.75;100.00;76145.13;5006120;28;20560;-66
2023/01/09 11:21:34;;;;;;;7.03;1.13;;;;;;;-142.75;100.00;76164.81;5002677;28;20028;-66
2023/01/09 11:24:20;;;;;;;7.15;1.15;;;;;;;-142.75;100.00;76174.66;4989221;28;20036;-66
2023/01/09 11:26:50;;;;;;;6.47;1.15;;;;;;;-142.75;100.00;76151.03;5011295;28;20063;-67
2023/01/09 11:29:23;;;;;;;10.40;1.75;;;;;;;-142.75;100.00;76135.28;5017319;28;20023;-65
2023/01/09 11:31:58;;;;;;;9.30;1.38;;;;;;;-142.75;100.00;76086.06;5016778;28;20032;-65
2023/01/09 11:34:27;;;;;;;11.18;1.50;;;;;;;-142.75;100.00;76056.56;5019600;28;20130;-64
2023/01/09 11:37:03;;;;;;;5.30;1.00;;;;;;;-142.75;100.00;76027.03;5015667;28;20039;-65
2023/01/09 11:39:32;;;;;;;7.15;1.15;;;;;;;-142.75;100.00;76052.63;5012619;28;20024;-65
2023/01/09 11:42:08;;;;;;;10.52;1.23;;;;;;;-142.75;100.00;76062.47;5002044;28;20078;-66